AirNav   Duncan Aviation - Near you to keep you flying
 
 1317 users online  

2OK9 Caribou Airport
Piedmont, Oklahoma, USA

GOING TO PIEDMONT?


FAA INFORMATION EFFECTIVE 01 DECEMBER 2022

Location

FAA Identifier: 2OK9
Lat/Long: 35-39-29.0000N 097-37-45.0000W
35-39.483333N 097-37.750000W
35.6580556,-97.6291667
(estimated)
Elevation: 1050 ft. / 320 m (estimated)
From city: 6 miles E of PIEDMONT, OK
Time zone: UTC -6 (UTC -5 during Daylight Saving Time)
Zip code: 73142

Airport Operations

Airport use: Private use. Permission required prior to landing
Activation date: 09/2010
Control tower: no
ARTCC: FORT WORTH CENTER
FSS: MC ALESTER FLIGHT SERVICE STATION
Attendance: UNATNDD
Wind indicator: yes
Segmented circle: no

Airport Communications

WX AWOS-3 at HSD (5 nm SW): 120.975 (405-283-9848)
WX ASOS at PWA (7 nm S): PHONE 405-798-2013
WX AWOS-3 at RCE (14 nm SW): 125.05 (405-354-2617)
WX ASOS at GOK (16 nm NE): 133.975 (405-282-0478)
WX ASOS at OKC (16 nm S): PHONE 405-686-4711

Nearby radio navigation aids

VOR radial/distance  VOR name  Freq  Var
PWAr359/7.6WILEY POST VOR/DME113.4008E
IRWr350/18.0WILL ROGERS VORTAC114.1007E

Airport Services

Runway Information

Runway 18/36

Dimensions: 2100 x 150 ft. / 640 x 46 m
Surface: turf, in good condition
RUNWAY 18  RUNWAY 36
Traffic pattern: leftleft
Obstructions: 50 ft. trees50 ft. trees, 50 ft. from runway

Airport Ownership and Management from official FAA records

Ownership: Privately-owned
Owner: DAVID J. WHITE
6701 NW 178TH STREET
EDMOND, OK 73012
Phone 405-234-0074
Manager: DAVID J. WHITE
6701 NW 178TH STREET
EDMOND, OK 73012
Phone 405-234-0074

Airport Operational Statistics

Aircraft based on the field: 1
Single engine airplanes: 1
    

Additional Remarks

FOR CD CTC OKE CITY APCH AT 405-681-5683

Instrument Procedures

There are no published instrument procedures at 2OK9.

Some nearby airports with instrument procedures:

KHSD - Sundance Airport (5 nm SW)
KPWA - Wiley Post Airport (7 nm S)
KRCE - Clarence E Page Municipal Airport (14 nm SW)
KGOK - Guthrie/Edmond Regional Airport (16 nm NE)
KOKC - Will Rogers World Airport (16 nm S)
KTIK - Tinker Air Force Base (19 nm SE)
 
Loc | Ops | Rwys | IFR | FBO | Links
Com | Nav | Svcs | Stats | Notes
Aerial photo
No photo
 
Sectional chart

 
Airport distance calculator
Flying to Caribou Airport? Find the distance to fly.

From to 2OK9

Sunrise and sunset
Times for 02-Dec-2022
 Local
(UTC-6)
 Zulu
(UTC)
Morning civil twilight06:5612:56
Sunrise07:2413:24
Sunset17:1623:16
Evening civil twilight17:4423:44

Current date and time
Zulu (UTC)  02-Dec-2022 15:30:34
Local (UTC-6)  02-Dec-2022 09:30:34
 
METAR
KHSD 
5nm SW 
021515Z AUTO 19023G29KT 8SM CLR 11/11 A2990 RMK A01
KPWA 
8nm S 
021453Z 19021G26KT 4SM BR OVC005 11/09 A2993 RMK AO2 PK WND 19031/1422 SLP136 T01110094 58006
KRCE 
14nm SW 
021515Z AUTO 20020G26KT 4SM BR OVC004 11/11 A2992 RMK AO2
KGOK 
16nm NE 
021453Z AUTO 17016G25KT 10SM OVC007 11/09 A2991 RMK AO2 PK WND 19026/1429 SLP129 T01060089 58009
KOKC 
17nm S 
021452Z 18017KT 2SM -DZ BR OVC003 09/09 A2995 RMK AO2 TWR VIS 2 1/2 SLP143 P0000 60000 T00940094 58005
KTIK 
19nm SE 
021455Z AUTO 19020G24KT 4SM BR OVC004 10/09 A2992 RMK AO2 PK WND 20026/43 CIG 003 RWY13 SLP140 T00950093 56008
TAF
KOKC 
17nm S 
021120Z 0212/0312 17016G24KT 2SM BR OVC003 TEMPO 0212/0216 2SM -DZ BR OVC003 FM021600 20021G30KT 6SM BR BKN010 FM021900 21019G29KT P6SM SCT200 FM030400 33014G35KT P6SM BKN250 WS020/33060KT
KTIK 
19nm SE 
021340Z 0213/0316 18014KT 4800 BR BKN003 WS020/20045KT QNH2991INS BECMG 0216/0217 20012G20KT 9999 NSW BKN010 520042 QNH2990INS BECMG 0218/0219 20020G30KT 9999 FEW004 BKN030 520042 QNH2989INS BECMG 0222/0223 20012KT 9999 FEW012 SCT050 510053 QNH2989INS TX15/0222Z TN07/0309Z
NOTAMs
Click for the latest NOTAMs
NOTAMs are issued by the DoD/FAA and will open in a separate window not controlled by AirNav.

 

 
 

Would you like to see your business listed on this page?

 If your business provides an interesting product or service to pilots, flight crews, aircraft, or users of the Caribou Airport, you should consider listing it here.  To start the listing process, click on the button below
 
Add a business
 

Other Pages about Caribou Airport

Update a link
 
Copyright © AirNav, LLC. All rights reserved. Privacy Policy  Contact